sensor_id;sensor_type;location;lat;lon;timestamp;pressure;altitude;pressure_sealevel;temperature;humidity
22018;BME280;11173;51.050;7.108;2023-08-07T00:00:29;99084.59;;;12.16;73.04
22018;BME280;11173;51.050;7.108;2023-08-07T00:10:30;99075.19;;;12.09;73.15
22018;BME280;11173;51.050;7.108;2023-08-07T00:20:30;99076.09;;;12.06;73.64
22018;BME280;11173;51.050;7.108;2023-08-07T00:30:30;99087.13;;;11.97;74.04
22018;BME280;11173;51.050;7.108;2023-08-07T00:40:37;99085.91;;;11.98;73.92
22018;BME280;11173;51.050;7.108;2023-08-07T00:50:40;99095.50;;;11.97;74.19
22018;BME280;11173;51.050;7.108;2023-08-07T01:00:41;99108.53;;;11.87;74.68
22018;BME280;11173;51.050;7.108;2023-08-07T01:20:43;99113.34;;;11.87;74.57
22018;BME280;11173;51.050;7.108;2023-08-07T01:30:47;99116.47;;;11.76;75.00
22018;BME280;11173;51.050;7.108;2023-08-07T01:40:48;99133.03;;;11.67;75.27
22018;BME280;11173;51.050;7.108;2023-08-07T01:50:50;99112.41;;;11.64;75.30
22018;BME280;11173;51.050;7.108;2023-08-07T02:00:50;99131.38;;;11.69;74.95
22018;BME280;11173;51.050;7.108;2023-08-07T02:10:51;99130.56;;;11.56;75.61
22018;BME280;11173;51.050;7.108;2023-08-07T02:20:51;99151.28;;;11.55;75.14
22018;BME280;11173;51.050;7.108;2023-08-07T02:30:51;99116.09;;;11.45;75.81
22018;BME280;11173;51.050;7.108;2023-08-07T02:40:54;99153.03;;;11.49;75.67
22018;BME280;11173;51.050;7.108;2023-08-07T02:50:54;99151.13;;;11.46;75.59
22018;BME280;11173;51.050;7.108;2023-08-07T03:00:54;99151.66;;;11.41;76.17
22018;BME280;11173;51.050;7.108;2023-08-07T03:10:57;99152.63;;;11.34;76.21
22018;BME280;11173;51.050;7.108;2023-08-07T03:20:58;99146.50;;;11.39;76.00
22018;BME280;11173;51.050;7.108;2023-08-07T03:30:59;99154.63;;;11.33;76.17
22018;BME280;11173;51.050;7.108;2023-08-07T03:40:59;99125.94;;;11.33;75.78
22018;BME280;11173;51.050;7.108;2023-08-07T03:51:05;99172.94;;;11.34;75.62
22018;BME280;11173;51.050;7.108;2023-08-07T04:01:08;99173.09;;;11.27;75.97
22018;BME280;11173;51.050;7.108;2023-08-07T04:11:08;99170.41;;;11.24;76.33
22018;BME280;11173;51.050;7.108;2023-08-07T04:21:09;99175.53;;;11.25;76.25
22018;BME280;11173;51.050;7.108;2023-08-07T04:31:09;99171.25;;;11.37;76.39
22018;BME280;11173;51.050;7.108;2023-08-07T04:41:10;99189.66;;;11.34;76.66
22018;BME280;11173;51.050;7.108;2023-08-07T04:51:10;99208.28;;;11.38;76.51
22018;BME280;11173;51.050;7.108;2023-08-07T05:01:10;99202.53;;;11.45;76.42
22018;BME280;11173;51.050;7.108;2023-08-07T05:11:11;99202.19;;;11.43;75.90
22018;BME280;11173;51.050;7.108;2023-08-07T05:21:11;99208.91;;;11.45;76.19
22018;BME280;11173;51.050;7.108;2023-08-07T05:31:11;99203.09;;;11.56;76.47
22018;BME280;11173;51.050;7.108;2023-08-07T05:41:12;99205.69;;;11.63;76.36
22018;BME280;11173;51.050;7.108;2023-08-07T05:51:12;99229.38;;;11.71;75.97
22018;BME280;11173;51.050;7.108;2023-08-07T06:01:12;99218.91;;;11.76;75.79
22018;BME280;11173;51.050;7.108;2023-08-07T06:11:14;99206.97;;;11.75;75.61
22018;BME280;11173;51.050;7.108;2023-08-07T06:21:15;99222.72;;;11.82;75.36
22018;BME280;11173;51.050;7.108;2023-08-07T06:31:15;99222.97;;;11.87;74.77
22018;BME280;11173;51.050;7.108;2023-08-07T06:41:15;99236.34;;;11.80;74.38
22018;BME280;11173;51.050;7.108;2023-08-07T06:51:16;99236.00;;;11.78;74.37
22018;BME280;11173;51.050;7.108;2023-08-07T07:01:16;99261.81;;;11.65;74.55
22018;BME280;11173;51.050;7.108;2023-08-07T07:11:17;99271.94;;;11.59;75.34
22018;BME280;11173;51.050;7.108;2023-08-07T07:21:18;99279.09;;;11.60;75.39
22018;BME280;11173;51.050;7.108;2023-08-07T07:31:18;99298.16;;;11.62;75.83
22018;BME280;11173;51.050;7.108;2023-08-07T07:41:18;99297.16;;;11.72;75.41
22018;BME280;11173;51.050;7.108;2023-08-07T07:51:19;99335.06;;;11.69;75.01
22018;BME280;11173;51.050;7.108;2023-08-07T08:01:19;99322.50;;;11.78;75.54
22018;BME280;11173;51.050;7.108;2023-08-07T08:11:19;99314.03;;;11.81;75.66
22018;BME280;11173;51.050;7.108;2023-08-07T08:21:20;99347.72;;;11.90;75.47
22018;BME280;11173;51.050;7.108;2023-08-07T08:31:20;99384.53;;;12.02;75.11
22018;BME280;11173;51.050;7.108;2023-08-07T08:41:23;99412.19;;;11.96;74.95
22018;BME280;11173;51.050;7.108;2023-08-07T08:51:24;99419.22;;;12.01;75.73
22018;BME280;11173;51.050;7.108;2023-08-07T09:01:25;99438.28;;;12.06;76.40
22018;BME280;11173;51.050;7.108;2023-08-07T09:11:26;99446.00;;;12.31;76.77
22018;BME280;11173;51.050;7.108;2023-08-07T09:21:26;99449.22;;;12.62;75.76
22018;BME280;11173;51.050;7.108;2023-08-07T09:31:28;99440.81;;;12.79;75.79
22018;BME280;11173;51.050;7.108;2023-08-07T09:41:30;99474.06;;;13.31;77.42
22018;BME280;11173;51.050;7.108;2023-08-07T09:51:44;99484.25;;;14.19;77.26
22018;BME280;11173;51.050;7.108;2023-08-07T10:01:45;99477.19;;;14.87;71.61
22018;BME280;11173;51.050;7.108;2023-08-07T10:11:45;99462.13;;;14.94;71.43
22018;BME280;11173;51.050;7.108;2023-08-07T10:21:46;99484.38;;;15.33;69.29
22018;BME280;11173;51.050;7.108;2023-08-07T10:31:47;99506.69;;;15.36;68.28
22018;BME280;11173;51.050;7.108;2023-08-07T10:41:53;99510.03;;;15.44;69.27
22018;BME280;11173;51.050;7.108;2023-08-07T10:51:55;99507.97;;;15.88;69.50
22018;BME280;11173;51.050;7.108;2023-08-07T11:01:55;99506.09;;;16.26;65.74
22018;BME280;11173;51.050;7.108;2023-08-07T11:11:56;99497.09;;;16.49;62.75
22018;BME280;11173;51.050;7.108;2023-08-07T11:21:57;99491.34;;;16.62;62.33
22018;BME280;11173;51.050;7.108;2023-08-07T11:31:57;99498.09;;;16.74;59.91
22018;BME280;11173;51.050;7.108;2023-08-07T11:41:58;99482.66;;;16.97;54.86
22018;BME280;11173;51.050;7.108;2023-08-07T11:51:59;99493.72;;;17.01;53.42
22018;BME280;11173;51.050;7.108;2023-08-07T12:02:09;99481.22;;;16.93;53.50
22018;BME280;11173;51.050;7.108;2023-08-07T12:12:11;99486.50;;;17.37;50.85
22018;BME280;11173;51.050;7.108;2023-08-07T12:22:11;99494.13;;;17.73;51.00
22018;BME280;11173;51.050;7.108;2023-08-07T12:32:11;99488.81;;;18.08;49.30
22018;BME280;11173;51.050;7.108;2023-08-07T12:42:12;99483.09;;;17.94;48.18
22018;BME280;11173;51.050;7.108;2023-08-07T12:52:12;99496.34;;;18.12;49.70
22018;BME280;11173;51.050;7.108;2023-08-07T13:02:13;99484.88;;;18.15;47.06
22018;BME280;11173;51.050;7.108;2023-08-07T13:12:13;99488.16;;;18.23;47.82
22018;BME280;11173;51.050;7.108;2023-08-07T13:22:13;99497.06;;;18.55;45.04
22018;BME280;11173;51.050;7.108;2023-08-07T13:32:14;99510.63;;;18.90;42.36
22018;BME280;11173;51.050;7.108;2023-08-07T13:42:15;99497.16;;;18.84;41.41
22018;BME280;11173;51.050;7.108;2023-08-07T13:52:16;99518.03;;;18.87;40.68
22018;BME280;11173;51.050;7.108;2023-08-07T14:02:16;99527.78;;;18.53;42.70
22018;BME280;11173;51.050;7.108;2023-08-07T14:12:16;99530.03;;;18.39;43.72
22018;BME280;11173;51.050;7.108;2023-08-07T14:22:17;99525.63;;;18.47;42.82
22018;BME280;11173;51.050;7.108;2023-08-07T14:32:17;99559.47;;;18.47;42.05
22018;BME280;11173;51.050;7.108;2023-08-07T14:42:18;99560.91;;;18.34;44.20
22018;BME280;11173;51.050;7.108;2023-08-07T14:52:18;99547.59;;;18.43;46.92
22018;BME280;11173;51.050;7.108;2023-08-07T15:02:18;99569.78;;;18.84;47.07
22018;BME280;11173;51.050;7.108;2023-08-07T15:12:19;99569.59;;;19.12;45.39
22018;BME280;11173;51.050;7.108;2023-08-07T15:22:19;99557.97;;;18.95;45.02
22018;BME280;11173;51.050;7.108;2023-08-07T15:32:20;99594.41;;;18.83;45.99
22018;BME280;11173;51.050;7.108;2023-08-07T15:42:20;99593.53;;;18.68;44.67
22018;BME280;11173;51.050;7.108;2023-08-07T15:52:20;99582.03;;;18.38;46.49
22018;BME280;11173;51.050;7.108;2023-08-07T16:02:41;99572.84;;;18.28;47.71
22018;BME280;11173;51.050;7.108;2023-08-07T16:13:02;99572.50;;;18.45;47.82
22018;BME280;11173;51.050;7.108;2023-08-07T16:23:23;99580.19;;;18.68;47.65
22018;BME280;11173;51.050;7.108;2023-08-07T16:33:44;99589.69;;;18.80;47.44
22018;BME280;11173;51.050;7.108;2023-08-07T16:44:04;99592.25;;;18.36;48.43
22018;BME280;11173;51.050;7.108;2023-08-07T16:54:25;99595.94;;;18.08;50.28
22018;BME280;11173;51.050;7.108;2023-08-07T17:04:46;99597.66;;;18.06;50.73
22018;BME280;11173;51.050;7.108;2023-08-07T17:15:08;99585.63;;;17.96;50.21
22018;BME280;11173;51.050;7.108;2023-08-07T17:25:29;99585.53;;;17.72;50.71
22018;BME280;11173;51.050;7.108;2023-08-07T17:35:50;99582.72;;;17.44;50.86
22018;BME280;11173;51.050;7.108;2023-08-07T17:46:10;99586.13;;;17.21;51.59
22018;BME280;11173;51.050;7.108;2023-08-07T17:56:31;99571.56;;;16.95;51.56
22018;BME280;11173;51.050;7.108;2023-08-07T18:06:53;99584.06;;;16.75;52.17
22018;BME280;11173;51.050;7.108;2023-08-07T18:17:14;99586.81;;;16.66;53.49
22018;BME280;11173;51.050;7.108;2023-08-07T18:27:36;99578.63;;;16.99;53.51
22018;BME280;11173;51.050;7.108;2023-08-07T18:37:56;99583.81;;;17.47;52.93
22018;BME280;11173;51.050;7.108;2023-08-07T18:48:17;99576.31;;;17.25;51.55
22018;BME280;11173;51.050;7.108;2023-08-07T18:58:38;99584.41;;;16.46;52.12
22018;BME280;11173;51.050;7.108;2023-08-07T19:08:59;99591.72;;;15.81;53.10
22018;BME280;11173;51.050;7.108;2023-08-07T19:19:20;99587.88;;;15.30;53.77
22018;BME280;11173;51.050;7.108;2023-08-07T19:29:40;99598.25;;;14.86;54.52
22018;BME280;11173;51.050;7.108;2023-08-07T19:40:01;99596.69;;;14.46;54.94
22018;BME280;11173;51.050;7.108;2023-08-07T19:50:27;99594.78;;;14.18;56.11
22018;BME280;11173;51.050;7.108;2023-08-07T20:00:48;99586.22;;;14.08;56.23
22018;BME280;11173;51.050;7.108;2023-08-07T20:11:09;99599.47;;;14.08;56.63
22018;BME280;11173;51.050;7.108;2023-08-07T20:21:29;99585.44;;;14.08;57.26
22018;BME280;11173;51.050;7.108;2023-08-07T20:32:10;99580.16;;;13.97;57.01
22018;BME280;11173;51.050;7.108;2023-08-07T20:42:30;99578.91;;;13.85;57.26
22018;BME280;11173;51.050;7.108;2023-08-07T20:52:51;99569.03;;;13.81;58.21
22018;BME280;11173;51.050;7.108;2023-08-07T21:03:14;99558.09;;;13.86;57.91
22018;BME280;11173;51.050;7.108;2023-08-07T21:13:35;99565.13;;;13.91;58.16
22018;BME280;11173;51.050;7.108;2023-08-07T21:23:58;99559.25;;;13.72;57.79
22018;BME280;11173;51.050;7.108;2023-08-07T21:34:19;99551.63;;;13.60;58.84
22018;BME280;11173;51.050;7.108;2023-08-07T21:44:42;99545.81;;;13.67;59.28
22018;BME280;11173;51.050;7.108;2023-08-07T21:55:03;99549.25;;;13.88;59.02
22018;BME280;11173;51.050;7.108;2023-08-07T22:05:24;99543.75;;;13.97;59.23
22018;BME280;11173;51.050;7.108;2023-08-07T22:15:44;99542.53;;;13.98;59.11
22018;BME280;11173;51.050;7.108;2023-08-07T22:26:05;99537.81;;;13.95;59.21
22018;BME280;11173;51.050;7.108;2023-08-07T22:36:26;99517.78;;;13.97;59.18
22018;BME280;11173;51.050;7.108;2023-08-07T22:46:47;99514.06;;;13.87;59.02
22018;BME280;11173;51.050;7.108;2023-08-07T22:57:07;99516.16;;;13.70;59.40
22018;BME280;11173;51.050;7.108;2023-08-07T23:07:28;99527.88;;;13.52;59.70
22018;BME280;11173;51.050;7.108;2023-08-07T23:17:49;99512.72;;;13.49;60.23
22018;BME280;11173;51.050;7.108;2023-08-07T23:28:09;99497.88;;;13.52;60.11
22018;BME280;11173;51.050;7.108;2023-08-07T23:38:30;99494.72;;;13.50;60.12
22018;BME280;11173;51.050;7.108;2023-08-07T23:48:51;99470.97;;;13.42;60.05
22018;BME280;11173;51.050;7.108;2023-08-07T23:59:12;99456.06;;;13.20;59.86
